sensor_id;sensor_type;location;lat;lon;timestamp;pressure;altitude;pressure_sealevel;temperature;humidity
83027;BME280;72842;56.038;12.706;2024-03-29T00:01:20;99067.25;;;12.89;58.78
83027;BME280;72842;56.038;12.706;2024-03-29T00:03:46;99078.00;;;12.89;59.20
83027;BME280;72842;56.038;12.706;2024-03-29T00:06:11;99068.59;;;12.85;59.14
83027;BME280;72842;56.038;12.706;2024-03-29T00:08:38;99082.69;;;12.87;59.03
83027;BME280;72842;56.038;12.706;2024-03-29T00:11:04;99080.00;;;12.87;59.14
83027;BME280;72842;56.038;12.706;2024-03-29T00:13:29;99088.88;;;12.88;59.25
83027;BME280;72842;56.038;12.706;2024-03-29T00:15:55;99093.28;;;12.89;58.98
83027;BME280;72842;56.038;12.706;2024-03-29T00:18:20;99105.00;;;12.88;58.96
83027;BME280;72842;56.038;12.706;2024-03-29T00:20:45;99107.53;;;12.89;59.25
83027;BME280;72842;56.038;12.706;2024-03-29T00:23:11;99117.44;;;12.89;58.83
83027;BME280;72842;56.038;12.706;2024-03-29T00:25:36;99119.09;;;12.90;58.78
83027;BME280;72842;56.038;12.706;2024-03-29T00:28:02;99122.63;;;12.90;58.94
83027;BME280;72842;56.038;12.706;2024-03-29T00:30:28;99125.31;;;12.90;59.03
83027;BME280;72842;56.038;12.706;2024-03-29T00:32:54;99122.81;;;12.89;59.00
83027;BME280;72842;56.038;12.706;2024-03-29T00:35:19;99146.78;;;12.90;59.02
83027;BME280;72842;56.038;12.706;2024-03-29T00:37:46;99141.41;;;12.90;58.71
83027;BME280;72842;56.038;12.706;2024-03-29T00:40:11;99148.63;;;12.90;58.99
83027;BME280;72842;56.038;12.706;2024-03-29T00:42:36;99153.16;;;12.89;58.70
83027;BME280;72842;56.038;12.706;2024-03-29T00:45:02;99158.38;;;12.91;59.22
83027;BME280;72842;56.038;12.706;2024-03-29T00:47:28;99161.22;;;12.89;58.74
83027;BME280;72842;56.038;12.706;2024-03-29T00:49:53;99162.06;;;12.90;58.98
83027;BME280;72842;56.038;12.706;2024-03-29T00:52:19;99176.66;;;12.87;58.64
83027;BME280;72842;56.038;12.706;2024-03-29T00:54:44;99172.28;;;12.86;58.92
83027;BME280;72842;56.038;12.706;2024-03-29T00:57:10;99182.84;;;12.88;58.94
83027;BME280;72842;56.038;12.706;2024-03-29T00:59:38;99173.97;;;12.87;58.75
83027;BME280;72842;56.038;12.706;2024-03-29T01:02:04;99180.16;;;12.88;58.80
83027;BME280;72842;56.038;12.706;2024-03-29T01:04:29;99177.66;;;12.86;58.33
83027;BME280;72842;56.038;12.706;2024-03-29T01:06:55;99185.91;;;12.85;58.44
83027;BME280;72842;56.038;12.706;2024-03-29T01:09:21;99197.66;;;12.84;58.70
83027;BME280;72842;56.038;12.706;2024-03-29T01:11:47;99204.69;;;12.85;58.69
83027;BME280;72842;56.038;12.706;2024-03-29T01:14:12;99204.69;;;12.85;58.92
83027;BME280;72842;56.038;12.706;2024-03-29T01:16:38;99204.03;;;12.83;58.57
83027;BME280;72842;56.038;12.706;2024-03-29T01:19:03;99215.63;;;12.83;58.57
83027;BME280;72842;56.038;12.706;2024-03-29T01:21:30;99215.63;;;12.83;58.54
83027;BME280;72842;56.038;12.706;2024-03-29T01:23:55;99219.63;;;12.79;58.51
83027;BME280;72842;56.038;12.706;2024-03-29T01:26:21;99217.59;;;12.81;58.34
83027;BME280;72842;56.038;12.706;2024-03-29T01:28:46;99228.34;;;12.81;58.41
83027;BME280;72842;56.038;12.706;2024-03-29T01:31:12;99225.00;;;12.79;58.98
83027;BME280;72842;56.038;12.706;2024-03-29T01:33:38;99234.91;;;12.79;58.66
83027;BME280;72842;56.038;12.706;2024-03-29T01:36:05;99234.06;;;12.78;58.71
83027;BME280;72842;56.038;12.706;2024-03-29T01:38:31;99244.81;;;12.78;58.73
83027;BME280;72842;56.038;12.706;2024-03-29T01:40:56;99246.66;;;12.78;58.82
83027;BME280;72842;56.038;12.706;2024-03-29T01:43:22;99242.13;;;12.78;58.97
83027;BME280;72842;56.038;12.706;2024-03-29T01:45:51;99246.66;;;12.78;58.50
83027;BME280;72842;56.038;12.706;2024-03-29T01:48:18;99253.03;;;12.77;58.63
83027;BME280;72842;56.038;12.706;2024-03-29T01:50:44;99253.88;;;12.77;58.97
83027;BME280;72842;56.038;12.706;2024-03-29T01:53:11;99261.25;;;12.75;58.81
83027;BME280;72842;56.038;12.706;2024-03-29T01:55:37;99273.69;;;12.76;58.83
83027;BME280;72842;56.038;12.706;2024-03-29T01:58:03;99273.69;;;12.76;58.90
83027;BME280;72842;56.038;12.706;2024-03-29T02:00:30;99270.13;;;12.76;59.02
83027;BME280;72842;56.038;12.706;2024-03-29T02:02:57;99271.97;;;12.75;58.53
83027;BME280;72842;56.038;12.706;2024-03-29T02:05:24;99270.31;;;12.74;58.63
83027;BME280;72842;56.038;12.706;2024-03-29T02:07:50;99276.50;;;12.75;59.02
83027;BME280;72842;56.038;12.706;2024-03-29T02:10:16;99283.72;;;12.74;58.68
83027;BME280;72842;56.038;12.706;2024-03-29T02:12:41;99284.75;;;12.73;58.85
83027;BME280;72842;56.038;12.706;2024-03-29T02:15:07;99287.59;;;12.72;58.88
83027;BME280;72842;56.038;12.706;2024-03-29T02:17:33;99299.34;;;12.71;58.85
83027;BME280;72842;56.038;12.706;2024-03-29T02:19:58;99290.97;;;12.65;58.67
83027;BME280;72842;56.038;12.706;2024-03-29T02:22:25;99293.16;;;12.70;58.38
83027;BME280;72842;56.038;12.706;2024-03-29T02:24:52;99302.03;;;12.71;58.77
83027;BME280;72842;56.038;12.706;2024-03-29T02:27:19;99303.19;;;12.68;58.39
83027;BME280;72842;56.038;12.706;2024-03-29T02:29:45;99305.22;;;12.66;58.81
83027;BME280;72842;56.038;12.706;2024-03-29T02:32:10;99301.03;;;12.63;58.58
83027;BME280;72842;56.038;12.706;2024-03-29T02:34:36;99298.50;;;12.62;58.87
83027;BME280;72842;56.038;12.706;2024-03-29T02:37:01;99305.72;;;12.61;58.83
83027;BME280;72842;56.038;12.706;2024-03-29T02:39:27;99312.94;;;12.61;58.42
83027;BME280;72842;56.038;12.706;2024-03-29T02:41:53;99306.91;;;12.59;59.01
83027;BME280;72842;56.038;12.706;2024-03-29T02:44:18;99315.97;;;12.58;58.91
83027;BME280;72842;56.038;12.706;2024-03-29T02:46:44;99316.94;;;12.57;58.70
83027;BME280;72842;56.038;12.706;2024-03-29T02:49:09;99326.00;;;12.56;58.92
83027;BME280;72842;56.038;12.706;2024-03-29T02:51:35;99328.84;;;12.54;59.08
83027;BME280;72842;56.038;12.706;2024-03-29T02:54:01;99330.69;;;12.54;59.19
83027;BME280;72842;56.038;12.706;2024-03-29T02:56:27;99329.88;;;12.53;58.68
83027;BME280;72842;56.038;12.706;2024-03-29T02:58:52;99319.31;;;12.52;59.01
83027;BME280;72842;56.038;12.706;2024-03-29T03:01:18;99322.00;;;12.52;59.07
83027;BME280;72842;56.038;12.706;2024-03-29T03:03:44;99323.84;;;12.51;59.22
83027;BME280;72842;56.038;12.706;2024-03-29T03:06:09;99322.13;;;12.50;59.16
83027;BME280;72842;56.038;12.706;2024-03-29T03:08:35;99320.47;;;12.49;59.43
83027;BME280;72842;56.038;12.706;2024-03-29T03:11:19;99316.09;;;12.48;59.38
83027;BME280;72842;56.038;12.706;2024-03-29T03:13:44;99318.97;;;12.47;58.68
83027;BME280;72842;56.038;12.706;2024-03-29T03:16:10;99318.28;;;12.45;59.44
83027;BME280;72842;56.038;12.706;2024-03-29T03:18:35;99321.13;;;12.43;59.17
83027;BME280;72842;56.038;12.706;2024-03-29T03:21:01;99311.41;;;12.42;59.30
83027;BME280;72842;56.038;12.706;2024-03-29T03:23:26;99318.63;;;12.41;59.04
83027;BME280;72842;56.038;12.706;2024-03-29T03:25:56;99317.78;;;12.41;59.25
83027;BME280;72842;56.038;12.706;2024-03-29T03:28:22;99321.47;;;12.40;59.03
83027;BME280;72842;56.038;12.706;2024-03-29T03:30:51;99320.47;;;12.41;58.89
83027;BME280;72842;56.038;12.706;2024-03-29T03:33:17;99315.28;;;12.39;59.58
83027;BME280;72842;56.038;12.706;2024-03-29T03:35:43;99314.44;;;12.39;59.19
83027;BME280;72842;56.038;12.706;2024-03-29T03:38:09;99309.22;;;12.37;59.34
83027;BME280;72842;56.038;12.706;2024-03-29T03:40:35;99315.28;;;12.39;59.15
83027;BME280;72842;56.038;12.706;2024-03-29T03:43:05;99310.03;;;12.38;58.97
83027;BME280;72842;56.038;12.706;2024-03-29T03:45:38;99329.84;;;12.37;59.29
83027;BME280;72842;56.038;12.706;2024-03-29T03:48:06;99334.19;;;12.38;59.12
83027;BME280;72842;56.038;12.706;2024-03-29T03:50:32;99338.88;;;12.36;59.59
83027;BME280;72842;56.038;12.706;2024-03-29T03:52:57;99316.59;;;12.35;59.56
83027;BME280;72842;56.038;12.706;2024-03-29T03:55:23;99320.47;;;12.33;58.96
83027;BME280;72842;56.038;12.706;2024-03-29T03:57:49;99320.59;;;12.31;59.17
83027;BME280;72842;56.038;12.706;2024-03-29T04:00:14;99332.34;;;12.30;59.30
83027;BME280;72842;56.038;12.706;2024-03-29T04:02:40;99327.97;;;12.29;59.56
83027;BME280;72842;56.038;12.706;2024-03-29T04:05:06;99319.09;;;12.29;59.66
83027;BME280;72842;56.038;12.706;2024-03-29T04:07:32;99315.75;;;12.27;58.99
83027;BME280;72842;56.038;12.706;2024-03-29T04:09:58;99329.31;;;12.25;59.77
83027;BME280;72842;56.038;12.706;2024-03-29T04:12:23;99349.09;;;12.24;59.30
83027;BME280;72842;56.038;12.706;2024-03-29T04:14:49;99333.00;;;12.24;59.32
83027;BME280;72842;56.038;12.706;2024-03-29T04:17:14;99346.59;;;12.23;59.37
83027;BME280;72842;56.038;12.706;2024-03-29T04:19:39;99345.09;;;12.20;59.45
83027;BME280;72842;56.038;12.706;2024-03-29T04:22:05;99331.81;;;12.19;59.62
83027;BME280;72842;56.038;12.706;2024-03-29T04:24:31;99338.19;;;12.18;60.03
83027;BME280;72842;56.038;12.706;2024-03-29T04:26:56;99330.31;;;12.16;59.24
83027;BME280;72842;56.038;12.706;2024-03-29T04:29:22;99331.50;;;12.13;59.52
83027;BME280;72842;56.038;12.706;2024-03-29T04:31:47;99325.44;;;12.11;59.68
83027;BME280;72842;56.038;12.706;2024-03-29T04:34:13;99328.94;;;12.12;59.39
83027;BME280;72842;56.038;12.706;2024-03-29T04:36:38;99335.97;;;12.13;59.99
83027;BME280;72842;56.038;12.706;2024-03-29T04:39:04;99345.03;;;12.12;59.81
83027;BME280;72842;56.038;12.706;2024-03-29T04:41:30;99339.19;;;12.08;59.51
83027;BME280;72842;56.038;12.706;2024-03-29T04:44:02;99331.81;;;12.10;59.48
83027;BME280;72842;56.038;12.706;2024-03-29T04:46:32;99342.69;;;12.09;59.78
83027;BME280;72842;56.038;12.706;2024-03-29T04:48:58;99340.19;;;12.07;59.82
83027;BME280;72842;56.038;12.706;2024-03-29T04:51:23;99340.00;;;12.09;59.51
83027;BME280;72842;56.038;12.706;2024-03-29T04:53:49;99336.66;;;12.07;59.15
83027;BME280;72842;56.038;12.706;2024-03-29T04:56:15;99338.47;;;12.06;59.66
83027;BME280;72842;56.038;12.706;2024-03-29T04:58:40;99347.41;;;12.07;59.80
83027;BME280;72842;56.038;12.706;2024-03-29T05:01:07;99341.16;;;12.06;59.68
83027;BME280;72842;56.038;12.706;2024-03-29T05:03:32;99343.19;;;12.04;59.40
83027;BME280;72842;56.038;12.706;2024-03-29T05:05:58;99355.75;;;12.04;59.59
83027;BME280;72842;56.038;12.706;2024-03-29T05:08:23;99352.22;;;12.03;59.56
83027;BME280;72842;56.038;12.706;2024-03-29T05:10:49;99350.38;;;12.04;59.78
83027;BME280;72842;56.038;12.706;2024-03-29T05:13:18;99353.06;;;12.04;59.65
83027;BME280;72842;56.038;12.706;2024-03-29T05:15:48;99346.03;;;12.03;59.19
83027;BME280;72842;56.038;12.706;2024-03-29T05:18:14;99351.41;;;12.03;59.88
83027;BME280;72842;56.038;12.706;2024-03-29T05:20:39;99353.91;;;12.04;59.07
83027;BME280;72842;56.038;12.706;2024-03-29T05:23:07;99346.03;;;12.03;59.46
83027;BME280;72842;56.038;12.706;2024-03-29T05:25:32;99341.34;;;12.05;59.43
83027;BME280;72842;56.038;12.706;2024-03-29T05:27:57;99343.19;;;12.04;59.67
83027;BME280;72842;56.038;12.706;2024-03-29T05:30:23;99351.06;;;12.06;59.01
83027;BME280;72842;56.038;12.706;2024-03-29T05:32:49;99347.41;;;12.07;58.84
83027;BME280;72842;56.038;12.706;2024-03-29T05:35:15;99349.06;;;12.08;59.67
83027;BME280;72842;56.038;12.706;2024-03-29T05:37:40;99354.44;;;12.08;59.74
83027;BME280;72842;56.038;12.706;2024-03-29T05:40:08;99355.09;;;12.10;58.86
83027;BME280;72842;56.038;12.706;2024-03-29T05:42:34;99348.91;;;12.09;59.01
83027;BME280;72842;56.038;12.706;2024-03-29T05:45:01;99349.09;;;12.16;59.15
83027;BME280;72842;56.038;12.706;2024-03-29T05:47:26;99354.81;;;12.21;58.73
83027;BME280;72842;56.038;12.706;2024-03-29T05:49:53;99359.69;;;12.26;59.19
83027;BME280;72842;56.038;12.706;2024-03-29T05:52:19;99372.91;;;12.27;58.81
83027;BME280;72842;56.038;12.706;2024-03-29T05:54:46;99371.75;;;12.30;59.05
83027;BME280;72842;56.038;12.706;2024-03-29T05:57:12;99379.63;;;12.31;58.93
83027;BME280;72842;56.038;12.706;2024-03-29T05:59:37;99380.66;;;12.38;58.75
83027;BME280;72842;56.038;12.706;2024-03-29T06:02:03;99380.00;;;12.45;59.06
83027;BME280;72842;56.038;12.706;2024-03-29T06:04:29;99382.00;;;12.51;58.81
83027;BME280;72842;56.038;12.706;2024-03-29T06:07:01;99385.72;;;12.58;58.75
83027;BME280;72842;56.038;12.706;2024-03-29T06:09:27;99394.78;;;12.65;58.47
83027;BME280;72842;56.038;12.706;2024-03-29T06:11:57;99400.34;;;12.72;58.29
83027;BME280;72842;56.038;12.706;2024-03-29T06:14:26;99405.88;;;12.78;58.50
83027;BME280;72842;56.038;12.706;2024-03-29T06:17:10;99398.00;;;12.85;58.06
83027;BME280;72842;56.038;12.706;2024-03-29T06:19:48;99405.22;;;12.92;58.18
83027;BME280;72842;56.038;12.706;2024-03-29T06:22:14;99408.06;;;12.99;58.41
83027;BME280;72842;56.038;12.706;2024-03-29T06:24:40;99402.84;;;13.06;58.05
83027;BME280;72842;56.038;12.706;2024-03-29T06:27:08;99407.56;;;13.12;58.12
83027;BME280;72842;56.038;12.706;2024-03-29T06:29:34;99419.31;;;13.19;58.10
83027;BME280;72842;56.038;12.706;2024-03-29T06:31:59;99412.44;;;13.25;58.00
83027;BME280;72842;56.038;12.706;2024-03-29T06:34:25;99414.28;;;13.32;57.82
83027;BME280;72842;56.038;12.706;2024-03-29T06:36:50;99413.59;;;13.38;57.67
83027;BME280;72842;56.038;12.706;2024-03-29T06:39:16;99421.81;;;13.45;57.57
83027;BME280;72842;56.038;12.706;2024-03-29T06:41:42;99428.06;;;13.54;57.46
83027;BME280;72842;56.038;12.706;2024-03-29T06:44:07;99430.88;;;13.60;57.37
83027;BME280;72842;56.038;12.706;2024-03-29T06:46:33;99433.72;;;13.67;57.27
83027;BME280;72842;56.038;12.706;2024-03-29T06:48:59;99435.56;;;13.74;57.18
83027;BME280;72842;56.038;12.706;2024-03-29T06:51:25;99447.28;;;13.82;57.03
83027;BME280;72842;56.038;12.706;2024-03-29T06:53:50;99460.06;;;13.88;56.91
83027;BME280;72842;56.038;12.706;2024-03-29T06:56:17;99461.22;;;13.93;56.62
83027;BME280;72842;56.038;12.706;2024-03-29T06:58:42;99468.59;;;13.99;56.73
83027;BME280;72842;56.038;12.706;2024-03-29T07:01:07;99461.88;;;14.03;56.94
83027;BME280;72842;56.038;12.706;2024-03-29T07:03:33;99453.78;;;14.12;56.51
83027;BME280;72842;56.038;12.706;2024-03-29T07:05:59;99464.66;;;14.18;56.31
83027;BME280;72842;56.038;12.706;2024-03-29T07:08:24;99469.34;;;14.24;56.36
83027;BME280;72842;56.038;12.706;2024-03-29T07:11:00;99465.31;;;14.28;56.20
83027;BME280;72842;56.038;12.706;2024-03-29T07:13:29;99472.50;;;14.36;56.17
83027;BME280;72842;56.038;12.706;2024-03-29T07:16:00;99472.00;;;14.41;56.06
83027;BME280;72842;56.038;12.706;2024-03-29T07:18:26;99474.66;;;14.49;55.91
83027;BME280;72842;56.038;12.706;2024-03-29T07:20:51;99463.38;;;14.53;56.07
83027;BME280;72842;56.038;12.706;2024-03-29T07:23:17;99476.78;;;14.62;56.06
83027;BME280;72842;56.038;12.706;2024-03-29T07:26:04;99481.47;;;14.68;55.72
83027;BME280;72842;56.038;12.706;2024-03-29T07:28:30;99483.28;;;14.75;55.45
83027;BME280;72842;56.038;12.706;2024-03-29T07:30:56;99490.84;;;14.80;55.75
83027;BME280;72842;56.038;12.706;2024-03-29T07:33:23;99491.34;;;14.83;55.68
83027;BME280;72842;56.038;12.706;2024-03-29T07:35:52;99502.22;;;14.90;55.10
83027;BME280;72842;56.038;12.706;2024-03-29T07:38:18;99495.63;;;14.93;55.55
83027;BME280;72842;56.038;12.706;2024-03-29T07:40:46;99503.00;;;14.99;55.61
83027;BME280;72842;56.038;12.706;2024-03-29T07:43:12;99507.19;;;15.01;55.07
83027;BME280;72842;56.038;12.706;2024-03-29T07:45:42;99509.16;;;15.07;55.03
83027;BME280;72842;56.038;12.706;2024-03-29T07:48:12;99514.22;;;15.10;55.17
83027;BME280;72842;56.038;12.706;2024-03-29T07:50:39;99508.31;;;15.15;54.97
83027;BME280;72842;56.038;12.706;2024-03-29T07:53:05;99496.97;;;15.20;54.67
83027;BME280;72842;56.038;12.706;2024-03-29T07:55:30;99499.97;;;15.25;54.69
83027;BME280;72842;56.038;12.706;2024-03-29T07:57:56;99503.16;;;15.28;54.43
83027;BME280;72842;56.038;12.706;2024-03-29T08:00:21;99504.28;;;15.34;54.49
83027;BME280;72842;56.038;12.706;2024-03-29T08:02:47;99507.25;;;15.39;54.35
83027;BME280;72842;56.038;12.706;2024-03-29T08:05:13;99506.91;;;15.42;54.86
83027;BME280;72842;56.038;12.706;2024-03-29T08:07:39;99509.06;;;15.47;54.24
83027;BME280;72842;56.038;12.706;2024-03-29T08:10:04;99506.66;;;15.52;54.24
83027;BME280;72842;56.038;12.706;2024-03-29T08:12:31;99508.81;;;15.56;54.71
83027;BME280;72842;56.038;12.706;2024-03-29T08:14:58;99503.72;;;15.61;53.94
83027;BME280;72842;56.038;12.706;2024-03-29T08:17:24;99498.66;;;15.67;53.87
83027;BME280;72842;56.038;12.706;2024-03-29T08:19:50;99497.63;;;15.68;54.41
83027;BME280;72842;56.038;12.706;2024-03-29T08:22:15;99491.69;;;15.72;53.84
83027;BME280;72842;56.038;12.706;2024-03-29T08:24:41;99500.53;;;15.81;53.77
83027;BME280;72842;56.038;12.706;2024-03-29T08:27:07;99501.84;;;15.85;53.90
83027;BME280;72842;56.038;12.706;2024-03-29T08:29:32;99488.16;;;15.86;53.79
83027;BME280;72842;56.038;12.706;2024-03-29T08:31:58;99494.31;;;15.95;53.60
83027;BME280;72842;56.038;12.706;2024-03-29T08:34:23;99498.31;;;15.99;53.45
83027;BME280;72842;56.038;12.706;2024-03-29T08:36:49;99499.63;;;16.03;53.59
83027;BME280;72842;56.038;12.706;2024-03-29T08:39:15;99500.94;;;16.07;53.28
83027;BME280;72842;56.038;12.706;2024-03-29T08:41:42;99505.78;;;16.12;53.16
83027;BME280;72842;56.038;12.706;2024-03-29T08:44:07;99515.00;;;16.17;53.06
83027;BME280;72842;56.038;12.706;2024-03-29T08:46:33;99518.97;;;16.22;52.95
83027;BME280;72842;56.038;12.706;2024-03-29T08:48:58;99516.94;;;16.24;53.19
83027;BME280;72842;56.038;12.706;2024-03-29T08:51:24;99518.63;;;16.25;52.82
83027;BME280;72842;56.038;12.706;2024-03-29T08:53:49;99525.34;;;16.29;52.70
83027;BME280;72842;56.038;12.706;2024-03-29T08:56:15;99521.59;;;16.30;52.60
83027;BME280;72842;56.038;12.706;2024-03-29T08:58:41;99523.28;;;16.31;52.56
83027;BME280;72842;56.038;12.706;2024-03-29T09:01:06;99525.59;;;16.34;52.65
83027;BME280;72842;56.038;12.706;2024-03-29T09:03:32;99539.09;;;16.34;52.31
83027;BME280;72842;56.038;12.706;2024-03-29T09:05:57;99538.94;;;16.35;52.39
83027;BME280;72842;56.038;12.706;2024-03-29T09:08:23;99528.78;;;16.37;51.95
83027;BME280;72842;56.038;12.706;2024-03-29T09:10:48;99544.59;;;16.40;51.87
83027;BME280;72842;56.038;12.706;2024-03-29T09:13:15;99534.66;;;16.41;51.67
83027;BME280;72842;56.038;12.706;2024-03-29T09:15:40;99542.06;;;16.39;51.84
83027;BME280;72842;56.038;12.706;2024-03-29T09:18:06;99544.22;;;16.43;51.85
83027;BME280;72842;56.038;12.706;2024-03-29T09:20:37;99561.25;;;16.44;51.76
83027;BME280;72842;56.038;12.706;2024-03-29T09:23:03;99576.44;;;16.45;51.31
83027;BME280;72842;56.038;12.706;2024-03-29T09:25:29;99575.25;;;16.48;51.26
83027;BME280;72842;56.038;12.706;2024-03-29T09:27:55;99575.25;;;16.48;51.17
83027;BME280;72842;56.038;12.706;2024-03-29T09:30:20;99563.78;;;16.45;51.17
83027;BME280;72842;56.038;12.706;2024-03-29T09:32:47;99577.47;;;16.44;50.99
83027;BME280;72842;56.038;12.706;2024-03-29T09:35:15;99565.00;;;16.43;51.40
83027;BME280;72842;56.038;12.706;2024-03-29T09:37:40;99568.53;;;16.43;51.38
83027;BME280;72842;56.038;12.706;2024-03-29T09:40:09;99570.19;;;16.44;50.90
83027;BME280;72842;56.038;12.706;2024-03-29T09:42:35;99561.47;;;16.42;51.22
83027;BME280;72842;56.038;12.706;2024-03-29T09:45:02;99562.50;;;16.41;51.21
83027;BME280;72842;56.038;12.706;2024-03-29T09:47:30;99570.59;;;16.41;50.92
83027;BME280;72842;56.038;12.706;2024-03-29T09:49:56;99568.44;;;16.37;50.85
83027;BME280;72842;56.038;12.706;2024-03-29T09:52:23;99576.72;;;16.35;51.06
83027;BME280;72842;56.038;12.706;2024-03-29T09:54:48;99571.50;;;16.34;50.90
83027;BME280;72842;56.038;12.706;2024-03-29T09:57:14;99568.53;;;16.29;51.07
83027;BME280;72842;56.038;12.706;2024-03-29T09:59:39;99567.56;;;16.22;51.07
83027;BME280;72842;56.038;12.706;2024-03-29T10:02:14;99587.38;;;16.14;51.53
83027;BME280;72842;56.038;12.706;2024-03-29T10:04:42;99578.53;;;16.05;51.20
83027;BME280;72842;56.038;12.706;2024-03-29T10:07:07;99579.28;;;15.99;51.48
83027;BME280;72842;56.038;12.706;2024-03-29T10:09:35;99559.34;;;15.85;51.13
83027;BME280;72842;56.038;12.706;2024-03-29T10:12:01;99568.63;;;15.83;51.59
83027;BME280;72842;56.038;12.706;2024-03-29T10:14:30;99580.50;;;15.74;51.35
83027;BME280;72842;56.038;12.706;2024-03-29T10:16:55;99576.69;;;15.68;51.37
83027;BME280;72842;56.038;12.706;2024-03-29T10:19:22;99577.56;;;15.60;51.67
83027;BME280;72842;56.038;12.706;2024-03-29T10:21:47;99574.75;;;15.54;51.99
83027;BME280;72842;56.038;12.706;2024-03-29T10:24:13;99570.25;;;15.46;51.80
83027;BME280;72842;56.038;12.706;2024-03-29T10:26:43;99581.75;;;15.40;51.91
83027;BME280;72842;56.038;12.706;2024-03-29T10:29:08;99577.06;;;15.34;51.88
83027;BME280;72842;56.038;12.706;2024-03-29T10:31:35;99576.75;;;15.29;51.76
83027;BME280;72842;56.038;12.706;2024-03-29T10:34:04;99573.56;;;15.25;51.85
83027;BME280;72842;56.038;12.706;2024-03-29T10:36:34;99574.78;;;15.23;52.26
83027;BME280;72842;56.038;12.706;2024-03-29T10:39:09;99574.28;;;15.19;52.19
83027;BME280;72842;56.038;12.706;2024-03-29T10:41:40;99573.81;;;15.16;52.39
83027;BME280;72842;56.038;12.706;2024-03-29T10:44:09;99569.78;;;15.11;52.04
83027;BME280;72842;56.038;12.706;2024-03-29T10:46:36;99577.16;;;15.18;51.83
83027;BME280;72842;56.038;12.706;2024-03-29T10:49:03;99578.53;;;15.14;52.35
83027;BME280;72842;56.038;12.706;2024-03-29T10:51:28;99582.59;;;15.09;52.05
83027;BME280;72842;56.038;12.706;2024-03-29T10:53:56;99580.25;;;15.06;52.22
83027;BME280;72842;56.038;12.706;2024-03-29T10:56:24;99587.88;;;15.03;52.19
83027;BME280;72842;56.038;12.706;2024-03-29T10:58:56;99580.97;;;15.00;52.45
83027;BME280;72842;56.038;12.706;2024-03-29T11:01:25;99590.06;;;14.99;52.67
83027;BME280;72842;56.038;12.706;2024-03-29T11:03:54;99579.09;;;15.01;52.58
83027;BME280;72842;56.038;12.706;2024-03-29T11:06:26;99584.66;;;14.99;52.14
83027;BME280;72842;56.038;12.706;2024-03-29T11:08:56;99598.31;;;14.98;52.61
83027;BME280;72842;56.038;12.706;2024-03-29T11:11:26;99579.34;;;14.91;52.23
83027;BME280;72842;56.038;12.706;2024-03-29T11:14:02;99593.97;;;14.89;52.39
83027;BME280;72842;56.038;12.706;2024-03-29T11:16:28;99591.81;;;14.84;52.35
83027;BME280;72842;56.038;12.706;2024-03-29T11:18:54;99572.53;;;14.64;52.33
83027;BME280;72842;56.038;12.706;2024-03-29T11:21:20;99600.25;;;14.81;52.62
83027;BME280;72842;56.038;12.706;2024-03-29T11:23:50;99612.22;;;14.78;52.17
83027;BME280;72842;56.038;12.706;2024-03-29T11:26:18;99604.47;;;14.75;52.75
83027;BME280;72842;56.038;12.706;2024-03-29T11:28:48;99598.59;;;14.72;52.69
83027;BME280;72842;56.038;12.706;2024-03-29T11:31:15;99600.31;;;14.65;52.66
83027;BME280;72842;56.038;12.706;2024-03-29T11:36:13;99606.69;;;14.64;52.65
83027;BME280;72842;56.038;12.706;2024-03-29T11:38:39;99602.69;;;14.60;52.46
83027;BME280;72842;56.038;12.706;2024-03-29T11:41:12;99619.19;;;14.56;52.65
83027;BME280;72842;56.038;12.706;2024-03-29T11:43:38;99607.75;;;14.54;52.75
83027;BME280;72842;56.038;12.706;2024-03-29T11:46:07;99573.13;;;14.35;52.54
83027;BME280;72842;56.038;12.706;2024-03-29T11:48:33;99603.38;;;14.53;52.55
83027;BME280;72842;56.038;12.706;2024-03-29T11:50:59;99601.34;;;14.55;52.71
83027;BME280;72842;56.038;12.706;2024-03-29T11:53:26;99604.03;;;14.55;52.78
83027;BME280;72842;56.038;12.706;2024-03-29T11:55:53;99603.03;;;14.56;52.72
83027;BME280;72842;56.038;12.706;2024-03-29T11:58:23;99584.88;;;14.59;52.50
83027;BME280;72842;56.038;12.706;2024-03-29T12:00:49;99614.47;;;14.59;52.59
83027;BME280;72842;56.038;12.706;2024-03-29T12:03:16;99609.09;;;14.59;52.47
83027;BME280;72842;56.038;12.706;2024-03-29T12:05:43;99612.13;;;14.55;52.38
83027;BME280;72842;56.038;12.706;2024-03-29T12:08:09;99613.78;;;14.56;52.82
83027;BME280;72842;56.038;12.706;2024-03-29T12:10:35;99614.16;;;14.53;52.78
83027;BME280;72842;56.038;12.706;2024-03-29T12:13:07;99612.81;;;14.49;52.83
83027;BME280;72842;56.038;12.706;2024-03-29T12:15:34;99617.34;;;14.49;52.85
83027;BME280;72842;56.038;12.706;2024-03-29T12:18:04;99609.59;;;14.46;53.12
83027;BME280;72842;56.038;12.706;2024-03-29T12:20:36;99613.28;;;14.45;52.75
83027;BME280;72842;56.038;12.706;2024-03-29T12:23:04;99611.59;;;14.44;52.91
83027;BME280;72842;56.038;12.706;2024-03-29T12:25:30;99613.63;;;14.42;53.04
83027;BME280;72842;56.038;12.706;2024-03-29T12:27:57;99625.56;;;14.39;53.21
83027;BME280;72842;56.038;12.706;2024-03-29T12:30:24;99628.25;;;14.39;53.17
83027;BME280;72842;56.038;12.706;2024-03-29T12:33:06;99634.66;;;14.38;53.15
83027;BME280;72842;56.038;12.706;2024-03-29T12:35:32;99640.22;;;14.37;53.00
83027;BME280;72842;56.038;12.706;2024-03-29T12:38:02;99637.06;;;14.33;53.47
83027;BME280;72842;56.038;12.706;2024-03-29T12:40:30;99633.66;;;14.31;53.64
83027;BME280;72842;56.038;12.706;2024-03-29T12:43:02;99631.34;;;14.28;53.49
83027;BME280;72842;56.038;12.706;2024-03-29T12:45:28;99630.63;;;14.26;53.57
83027;BME280;72842;56.038;12.706;2024-03-29T12:47:54;99633.19;;;14.27;53.52
83027;BME280;72842;56.038;12.706;2024-03-29T12:50:29;99631.84;;;14.23;53.83